Time;durP1;ratioP1;P1;durP2;ratioP2;P2;SDS_P1;SDS_P2;PMS_P1;PMS_P2;Temp;Humidity;BMP_temperature;BMP_pressure;BME280_temperature;BME280_humidity;BME280_pressure;Samples;Min_cycle;Max_cycle;Signal;HPM_P1;HPM_P2
2022/04/25 00:01:01;;;;;;;4.50;3.13;;;;;;;21.08;43.14;95490.16;10275939;28;20413;-52
2022/04/25 00:06:21;;;;;;;3.05;2.75;;;;;;;21.07;43.30;95477.78;10284927;28;20098;-50
2022/04/25 00:11:41;;;;;;;3.63;2.90;;;;;;;21.06;43.18;95478.13;10299689;28;20066;-51
2022/04/25 00:17:00;;;;;;;4.82;3.38;;;;;;;21.03;43.04;95482.34;10285503;28;20043;-51
2022/04/25 00:22:20;;;;;;;4.13;3.05;;;;;;;21.04;43.23;95488.53;10272291;28;20101;-52
2022/04/25 00:27:40;;;;;;;3.55;3.00;;;;;;;21.01;43.04;95490.06;10307125;28;20046;-51
2022/04/25 00:33:00;;;;;;;4.03;2.92;;;;;;;21.02;42.98;95485.44;10271081;28;20051;-52
2022/04/25 00:38:20;;;;;;;3.65;2.85;;;;;;;21.01;42.98;95486.56;10266688;28;20125;-52
2022/04/25 00:43:39;;;;;;;4.95;3.15;;;;;;;20.99;42.95;95481.50;10300451;28;20051;-52
2022/04/25 00:48:58;;;;;;;3.15;2.65;;;;;;;20.97;42.99;95489.22;10282585;28;20055;-50
2022/04/25 00:54:20;;;;;;;3.78;2.60;;;;;;;20.96;42.97;95492.31;10289733;28;20067;-51
2022/04/25 00:59:40;;;;;;;2.97;2.67;;;;;;;20.94;42.95;95485.31;10290539;28;20089;-52
2022/04/25 01:04:59;;;;;;;3.55;2.83;;;;;;;20.93;42.84;95486.47;10277890;28;20043;-52
2022/04/25 01:10:19;;;;;;;3.53;2.85;;;;;;;20.92;42.89;95474.06;10287884;28;20059;-52
2022/04/25 01:15:39;;;;;;;3.80;2.85;;;;;;;20.91;42.90;95482.56;10308855;28;20493;-52
2022/04/25 01:20:58;;;;;;;3.83;2.85;;;;;;;20.89;42.82;95482.91;10327087;28;20054;-52
2022/04/25 01:31:56;;;;;;;3.22;2.47;;;;;;;20.87;42.81;95484.44;10331699;28;20057;-50
2022/04/25 01:37:19;;;;;;;3.22;2.63;;;;;;;20.86;42.80;95485.59;10320661;28;20057;-49
2022/04/25 01:42:39;;;;;;;3.13;2.83;;;;;;;20.84;42.82;95487.88;10329358;28;20058;-50
2022/04/25 01:47:59;;;;;;;2.72;2.53;;;;;;;20.84;42.71;95485.16;10315724;28;20040;-52
2022/04/25 01:53:18;;;;;;;3.00;2.70;;;;;;;20.81;42.79;95483.94;10312198;28;20464;-52
2022/04/25 01:58:38;;;;;;;2.85;2.65;;;;;;;20.80;42.72;95479.69;10327527;28;20062;-51
2022/04/25 02:03:57;;;;;;;2.70;2.50;;;;;;;20.78;42.78;95475.78;10332870;28;20043;-52
2022/04/25 02:09:17;;;;;;;2.53;2.25;;;;;;;20.77;42.84;95475.00;10340365;28;20053;-50
2022/04/25 02:14:37;;;;;;;3.80;2.45;;;;;;;20.76;42.70;95481.56;10327012;28;20073;-52
2022/04/25 02:19:57;;;;;;;2.75;2.53;;;;;;;20.76;42.82;95483.47;10329237;28;20101;-52
2022/04/25 02:25:16;;;;;;;2.80;2.60;;;;;;;20.73;42.69;95491.19;10326114;28;20054;-52
2022/04/25 02:30:35;;;;;;;2.97;2.40;;;;;;;20.72;42.82;95488.84;10329893;28;20070;-52
2022/04/25 02:35:54;;;;;;;2.65;2.28;;;;;;;20.72;42.80;95500.47;10329290;28;20057;-52
2022/04/25 02:41:15;;;;;;;2.60;2.40;;;;;;;20.71;42.90;95487.28;10313509;28;20512;-49
2022/04/25 02:46:34;;;;;;;3.15;2.67;;;;;;;20.69;42.66;95487.63;10343116;28;20048;-52
2022/04/25 02:51:54;;;;;;;2.55;2.33;;;;;;;20.68;42.77;95496.91;10329032;28;20058;-52
2022/04/25 02:57:13;;;;;;;2.72;2.50;;;;;;;20.66;42.67;95506.53;10321990;28;20478;-49
2022/04/25 03:02:33;;;;;;;2.47;2.28;;;;;;;20.64;42.76;95504.19;10320305;28;20059;-50
2022/04/25 03:07:52;;;;;;;2.47;2.28;;;;;;;20.64;42.75;95509.63;10319159;28;20066;-51
2022/04/25 03:13:12;;;;;;;2.30;2.10;;;;;;;20.63;42.70;95502.63;10326750;28;20402;-48
2022/04/25 03:18:32;;;;;;;2.45;2.25;;;;;;;20.62;42.64;95516.50;10328695;28;20109;-52
2022/04/25 03:23:53;;;;;;;2.60;2.40;;;;;;;20.61;42.53;95515.72;10329652;28;20512;-51
2022/04/25 03:29:13;;;;;;;2.42;2.00;;;;;;;20.59;42.66;95518.03;10340083;28;20049;-50
2022/04/25 03:34:32;;;;;;;2.67;2.47;;;;;;;20.58;42.77;95519.16;10317933;28;20051;-52
2022/04/25 03:39:52;;;;;;;2.55;2.35;;;;;;;20.57;42.60;95525.69;10310994;28;20460;-52
2022/04/25 03:45:15;;;;;;;2.60;2.40;;;;;;;20.54;42.74;95524.50;10326526;28;20451;-49
2022/04/25 03:50:35;;;;;;;2.40;2.20;;;;;;;20.55;42.70;95527.97;10317782;28;20579;-52
2022/04/25 04:01:32;;;;;;;2.73;2.43;;;;;;;20.51;42.73;95536.03;10317107;28;20055;-52
2022/04/25 04:06:52;;;;;;;2.45;2.10;;;;;;;20.50;42.52;95534.47;10344956;28;20519;-51
2022/04/25 04:12:14;;;;;;;2.35;2.15;;;;;;;20.49;42.99;95543.72;10341520;28;20053;-52
2022/04/25 04:17:35;;;;;;;2.45;2.13;;;;;;;20.48;42.95;95544.88;10335686;28;20057;-51
2022/04/25 04:22:54;;;;;;;2.55;2.35;;;;;;;20.45;43.03;95539.41;10307485;28;20062;-50
2022/04/25 04:28:14;;;;;;;2.70;2.50;;;;;;;20.44;43.28;95556.75;10346288;28;20050;-51
2022/04/25 04:33:33;;;;;;;3.08;2.70;;;;;;;20.44;43.27;95560.25;10344800;28;20051;-52
2022/04/25 04:38:53;;;;;;;3.03;2.65;;;;;;;20.44;43.28;95570.28;10350941;28;20513;-50
2022/04/25 04:44:13;;;;;;;2.70;2.50;;;;;;;20.42;43.32;95577.97;10351890;28;20532;-50
2022/04/25 04:49:32;;;;;;;2.63;2.42;;;;;;;20.41;43.29;95581.84;10347439;28;20418;-51
2022/04/25 04:54:52;;;;;;;2.42;2.22;;;;;;;20.41;43.36;95595.38;10352514;28;20101;-49
2022/04/25 05:00:13;;;;;;;3.63;2.47;;;;;;;20.40;43.62;95593.78;10356466;28;20038;-51
2022/04/25 05:05:33;;;;;;;2.53;2.33;;;;;;;20.39;43.60;95597.66;10345883;28;20057;-49
2022/04/25 05:10:54;;;;;;;2.97;2.45;;;;;;;20.37;43.54;95600.72;10356070;28;20447;-49
2022/04/25 05:16:14;;;;;;;6.75;3.25;;;;;;;20.37;43.54;95613.47;10348316;28;20062;-50
2022/04/25 05:21:34;;;;;;;5.97;3.08;;;;;;;20.37;43.71;95624.28;10321163;28;20043;-50
2022/04/25 05:26:53;;;;;;;5.47;3.10;;;;;;;20.35;43.71;95620.00;10312816;28;20043;-50
2022/04/25 05:32:12;;;;;;;5.10;2.92;;;;;;;20.34;43.69;95621.13;10326263;28;20398;-50
2022/04/25 05:37:31;;;;;;;9.15;4.20;;;;;;;20.32;43.82;95628.81;10322777;28;20540;-52
2022/04/25 05:42:51;;;;;;;9.13;3.97;;;;;;;20.32;43.76;95633.44;10345160;28;20045;-50
2022/04/25 05:54:10;;;;;;;10.45;4.38;;;;;;;20.29;44.00;95645.78;10251413;28;20106;-49
2022/04/25 05:59:30;;;;;;;15.45;4.72;;;;;;;20.29;43.81;95651.19;10319256;28;20436;-51
2022/04/25 06:04:49;;;;;;;14.40;4.88;;;;;;;20.27;43.95;95655.38;10340842;28;20054;-49
2022/04/25 06:10:10;;;;;;;11.68;4.85;;;;;;;20.27;44.05;95661.56;10325698;28;20482;-51
2022/04/25 06:15:30;;;;;;;12.23;5.15;;;;;;;20.26;44.11;95657.28;10317065;28;20482;-51
2022/04/25 06:20:50;;;;;;;14.30;5.97;;;;;;;20.25;44.02;95666.56;10335571;28;20054;-48
2022/04/25 06:26:09;;;;;;;10.35;5.88;;;;;;;20.23;43.93;95673.44;10335600;28;20046;-50
2022/04/25 06:31:29;;;;;;;12.73;5.10;;;;;;;20.22;43.95;95674.59;10323795;28;20050;-50
2022/04/25 06:36:50;;;;;;;11.18;5.32;;;;;;;20.20;44.12;95680.34;10328713;28;20445;-50
2022/04/25 06:42:09;;;;;;;12.35;4.80;;;;;;;20.20;44.15;95685.75;10326387;28;20046;-50
2022/04/25 06:47:29;;;;;;;10.38;5.20;;;;;;;20.19;44.00;95695.03;10347491;28;20410;-51
2022/04/25 06:52:49;;;;;;;9.93;4.60;;;;;;;20.18;43.92;95690.72;10342728;28;20055;-51
2022/04/25 06:58:08;;;;;;;9.48;4.75;;;;;;;20.17;44.00;95691.88;10313207;28;20093;-51
2022/04/25 07:03:27;;;;;;;7.50;4.53;;;;;;;20.16;44.09;95695.72;10365205;28;20050;-50
2022/04/25 07:08:47;;;;;;;7.90;4.30;;;;;;;20.17;43.96;95710.81;10343180;28;20055;-49
2022/04/25 07:14:06;;;;;;;8.45;4.10;;;;;;;20.15;44.04;95713.09;10338582;28;20061;-52
2022/04/25 07:19:26;;;;;;;8.93;4.30;;;;;;;20.13;44.04;95712.63;10368019;28;20083;-51
2022/04/25 07:30:23;;;;;;;6.10;3.90;;;;;;;20.11;43.92;95728.44;10327916;28;20084;-49
2022/04/25 07:35:43;;;;;;;7.47;4.25;;;;;;;20.11;43.88;95736.53;10351322;28;20088;-48
2022/04/25 07:41:03;;;;;;;7.82;4.00;;;;;;;20.08;43.76;95735.34;10330199;28;20459;-51
2022/04/25 07:46:26;;;;;;;6.03;3.78;;;;;;;20.07;43.43;95749.19;10342514;28;20394;-50
2022/04/25 07:51:47;;;;;;;6.80;3.58;;;;;;;20.06;43.76;95750.34;10358238;28;20585;-49
2022/04/25 07:57:07;;;;;;;6.88;3.83;;;;;;;20.04;43.78;95758.03;10359324;28;20050;-50
2022/04/25 08:02:28;;;;;;;7.25;3.58;;;;;;;20.05;43.70;95768.50;10323887;28;20045;-49
2022/04/25 08:07:48;;;;;;;6.55;3.67;;;;;;;20.04;43.90;95777.72;10312003;28;20405;-51
2022/04/25 08:18:45;;;;;;;6.57;3.67;;;;;;;20.02;43.85;95792.75;10331147;28;20046;-49
2022/04/25 08:24:05;;;;;;;6.82;3.85;;;;;;;20.03;44.30;95799.72;10325343;28;20108;-50
2022/04/25 08:29:25;;;;;;;7.03;3.80;;;;;;;20.02;44.55;95804.34;10329167;28;20509;-50
2022/04/25 08:34:44;;;;;;;6.53;3.53;;;;;;;20.02;44.60;95807.03;10341014;28;20058;-50
2022/04/25 08:40:04;;;;;;;8.00;3.60;;;;;;;20.02;44.67;95825.19;10338923;28;20051;-51
2022/04/25 08:45:24;;;;;;;5.82;3.55;;;;;;;20.01;44.64;95834.41;10341654;28;20047;-52
2022/04/25 08:50:45;;;;;;;6.18;3.47;;;;;;;20.01;44.76;95837.13;10329887;28;20041;-49
2022/04/25 08:56:06;;;;;;;6.80;3.15;;;;;;;19.98;44.88;95844.03;10318308;28;20057;-52
2022/04/25 09:01:26;;;;;;;5.32;3.33;;;;;;;19.99;44.84;95853.69;10325834;28;20050;-50
2022/04/25 09:06:45;;;;;;;5.00;2.90;;;;;;;19.98;44.88;95865.66;10337589;28;20053;-49
2022/04/25 09:12:12;;;;;;;5.43;3.03;;;;;;;19.98;44.82;95875.69;10343899;28;20054;-50
2022/04/25 09:17:32;;;;;;;4.05;2.97;;;;;;;19.96;44.95;95870.63;10322568;28;20046;-52
2022/04/25 09:22:52;;;;;;;5.18;3.35;;;;;;;19.95;44.78;95880.66;10337386;28;20057;-51
2022/04/25 09:28:15;;;;;;;6.47;3.05;;;;;;;19.94;44.94;95889.88;10339296;28;20608;-49
2022/04/25 09:33:34;;;;;;;5.18;2.95;;;;;;;19.94;44.98;95900.69;10348668;28;20050;-52
2022/04/25 09:38:53;;;;;;;4.80;2.88;;;;;;;19.93;44.91;95907.25;10308687;28;20047;-51
2022/04/25 09:44:13;;;;;;;4.45;2.97;;;;;;;19.92;44.91;95913.00;10317520;28;20054;-51
2022/04/25 09:49:32;;;;;;;4.50;3.00;;;;;;;19.90;44.76;95913.34;10313784;28;20062;-52
2022/04/25 09:54:51;;;;;;;5.05;2.90;;;;;;;19.92;44.86;95926.50;10317256;28;20042;-50
2022/04/25 10:00:11;;;;;;;5.18;2.78;;;;;;;19.89;44.87;95927.97;10335039;28;20062;-49
2022/04/25 10:05:39;;;;;;;3.65;2.70;;;;;;;19.89;44.79;95933.38;10337735;28;20050;-52
2022/04/25 10:11:02;;;;;;;3.50;2.85;;;;;;;19.89;44.88;95938.78;10325443;28;20414;-51
2022/04/25 10:16:21;;;;;;;3.83;2.60;;;;;;;19.88;44.80;95939.94;10324798;28;20046;-49
2022/04/25 10:21:41;;;;;;;4.57;2.70;;;;;;;19.88;44.88;95953.44;10325527;28;20497;-51
2022/04/25 10:27:08;;;;;;;4.10;2.75;;;;;;;19.87;44.88;95959.97;10338540;28;20505;-51
2022/04/25 10:32:27;;;;;;;3.17;2.58;;;;;;;19.88;44.99;95966.19;10315581;28;20410;-49
2022/04/25 10:37:48;;;;;;;3.35;2.10;;;;;;;19.86;45.12;95969.22;10343114;28;20489;-51
2022/04/25 10:49:07;;;;;;;3.67;2.40;;;;;;;19.85;45.20;95985.78;10327483;28;20053;-51
2022/04/25 10:54:28;;;;;;;4.07;2.38;;;;;;;19.87;45.26;95999.75;10332310;28;20159;-51
2022/04/25 10:59:48;;;;;;;4.13;2.42;;;;;;;19.88;45.36;95998.63;10326002;28;20401;-51
2022/04/25 11:05:10;;;;;;;2.97;2.30;;;;;;;19.85;45.42;96002.78;10344636;28;20615;-51
2022/04/25 11:10:44;;;;;;;3.20;2.30;;;;;;;19.85;45.84;96005.47;10351080;28;20517;-51
2022/04/25 11:16:20;;;;;;;3.55;3.10;;;;;;;19.63;40.83;96030.34;10337410;28;20061;-51
2022/04/25 11:21:46;;;;;;;3.40;3.10;;;;;;;19.31;40.19;96032.91;10352507;28;20034;-51
2022/04/25 11:27:09;;;;;;;2.95;2.75;;;;;;;19.16;40.79;96045.94;10359571;28;20065;-51
2022/04/25 11:32:32;;;;;;;2.20;2.00;;;;;;;19.31;41.91;96051.81;10334195;28;20077;-52
2022/04/25 11:37:56;;;;;;;2.35;2.15;;;;;;;19.40;42.07;96055.13;10349113;28;20057;-52
2022/04/25 11:43:16;;;;;;;2.40;2.20;;;;;;;19.47;42.16;96057.28;10351632;28;20057;-50
2022/04/25 11:48:36;;;;;;;2.63;2.33;;;;;;;19.52;41.87;96073.25;10346360;28;20389;-51
2022/04/25 11:53:58;;;;;;;2.85;2.03;;;;;;;19.55;41.92;96086.84;10315571;28;20054;-49
2022/04/25 11:59:19;;;;;;;2.47;2.28;;;;;;;19.59;42.08;96092.38;10351745;28;20105;-50
2022/04/25 12:04:40;;;;;;;2.63;2.42;;;;;;;19.61;42.01;96086.63;10347664;28;20103;-49
2022/04/25 12:15:43;;;;;;;3.95;2.30;;;;;;;19.66;42.18;96110.69;10349895;28;20076;-50
2022/04/25 12:21:05;;;;;;;3.50;2.15;;;;;;;19.69;42.16;96110.81;10349820;28;20072;-50
2022/04/25 12:26:27;;;;;;;2.78;2.03;;;;;;;19.71;42.08;96116.69;10362920;28;20046;-48
2022/04/25 12:31:48;;;;;;;2.20;2.05;;;;;;;19.79;42.18;96125.78;10342269;28;20038;-49
2022/04/25 12:37:11;;;;;;;2.13;1.70;;;;;;;19.87;42.13;96126.78;10344457;28;20038;-51
2022/04/25 12:42:46;;;;;;;2.35;1.98;;;;;;;19.90;42.00;96142.31;10346710;28;20045;-50
2022/04/25 12:48:06;;;;;;;2.38;2.00;;;;;;;19.90;42.14;96148.50;10325684;28;20046;-48
2022/04/25 12:53:39;;;;;;;2.38;1.95;;;;;;;19.92;42.42;96162.47;10331227;28;20058;-51
2022/04/25 12:58:59;;;;;;;2.15;2.05;;;;;;;19.95;42.45;96161.81;10344087;28;20053;-51
2022/04/25 13:04:21;;;;;;;2.38;1.90;;;;;;;19.95;42.69;96167.22;10344426;28;20098;-51
2022/04/25 13:09:40;;;;;;;2.17;1.98;;;;;;;19.99;42.66;96166.50;10328822;28;20457;-48
2022/04/25 13:15:01;;;;;;;2.30;1.90;;;;;;;20.00;42.73;96166.19;10325124;28;20050;-50
2022/04/25 13:20:21;;;;;;;8.75;7.97;;;;;;;19.71;39.55;96178.03;10342581;28;20466;-51
2022/04/25 13:25:41;;;;;;;10.00;8.88;;;;;;;18.89;39.31;96184.28;10339370;28;20042;-51
2022/04/25 13:31:00;;;;;;;7.35;6.65;;;;;;;19.09;40.35;96185.34;10324807;28;20525;-49
2022/04/25 13:36:19;;;;;;;6.60;5.63;;;;;;;19.37;40.67;96185.47;10317832;28;20065;-49
2022/04/25 13:41:40;;;;;;;6.53;5.82;;;;;;;19.55;40.66;96197.63;10325984;28;20050;-51
2022/04/25 13:47:00;;;;;;;6.18;5.63;;;;;;;19.66;40.74;96203.38;10332118;28;20116;-51
2022/04/25 13:52:20;;;;;;;6.38;5.72;;;;;;;19.72;40.99;96214.78;10323551;28;20398;-51
2022/04/25 13:57:40;;;;;;;6.55;5.60;;;;;;;19.79;40.88;96227.72;10330928;28;20046;-50
2022/04/25 14:03:05;;;;;;;6.10;5.50;;;;;;;19.82;41.00;96233.22;10315813;28;20054;-51
2022/04/25 14:08:26;;;;;;;5.88;4.93;;;;;;;19.86;41.42;96236.81;10324078;28;20614;-51
2022/04/25 14:13:46;;;;;;;7.13;5.80;;;;;;;19.89;41.51;96249.66;10324962;28;20093;-52
2022/04/25 14:19:06;;;;;;;5.68;5.15;;;;;;;19.92;41.60;96243.56;10343813;28;20038;-48
2022/04/25 14:24:26;;;;;;;6.13;5.20;;;;;;;19.95;41.82;96250.22;10324853;28;20061;-51
2022/04/25 14:29:46;;;;;;;6.38;5.10;;;;;;;19.99;41.92;96251.09;10328345;28;20062;-51
2022/04/25 14:35:06;;;;;;;5.50;5.00;;;;;;;20.02;41.94;96260.47;10327692;28;20050;-51
2022/04/25 14:40:26;;;;;;;5.45;4.95;;;;;;;20.04;41.86;96256.28;10325207;28;20417;-50
2022/04/25 14:45:47;;;;;;;5.28;4.65;;;;;;;20.08;41.92;96259.88;10321254;28;20054;-48
2022/04/25 14:56:45;;;;;;;5.27;4.77;;;;;;;20.12;42.23;96268.88;10322766;28;20042;-49
2022/04/25 15:02:06;;;;;;;4.70;4.30;;;;;;;20.16;42.50;96274.41;10324327;28;20054;-48
2022/04/25 15:07:25;;;;;;;8.82;8.02;;;;;;;19.84;38.19;96279.63;10339034;28;20054;-51
2022/04/25 15:12:44;;;;;;;6.55;5.88;;;;;;;19.77;39.41;96289.44;10319488;28;20058;-49
2022/04/25 15:18:05;;;;;;;5.40;4.90;;;;;;;19.87;40.57;96283.56;10324271;28;20053;-48
2022/04/25 15:23:24;;;;;;;5.80;5.22;;;;;;;19.96;40.47;96297.75;10328477;28;20050;-50
2022/04/25 15:28:44;;;;;;;6.05;5.38;;;;;;;20.03;40.56;96294.47;10331450;28;20466;-50
2022/04/25 15:34:03;;;;;;;6.15;5.55;;;;;;;20.09;40.67;96306.63;10346157;28;20042;-51
2022/04/25 15:39:23;;;;;;;7.55;4.97;;;;;;;20.11;40.63;96316.00;10336102;28;20133;-48
2022/04/25 15:44:42;;;;;;;5.57;5.07;;;;;;;20.14;40.84;96317.22;10333191;28;20054;-51
2022/04/25 15:50:01;;;;;;;5.45;4.97;;;;;;;20.16;41.01;96314.97;10341989;28;20042;-51
2022/04/25 16:01:00;;;;;;;5.07;4.57;;;;;;;20.21;41.14;96325.56;10329342;28;20169;-51
2022/04/25 16:06:19;;;;;;;5.10;4.70;;;;;;;20.23;41.18;96322.50;10334020;28;20054;-51
2022/04/25 16:11:38;;;;;;;7.30;6.57;;;;;;;20.14;38.35;96325.34;10341366;28;20049;-52
2022/04/25 16:16:58;;;;;;;7.90;7.13;;;;;;;19.69;35.97;96329.69;10327280;28;20065;-49
2022/04/25 16:22:17;;;;;;;7.93;7.13;;;;;;;19.34;35.63;96326.59;10320366;28;20493;-50
2022/04/25 16:27:37;;;;;;;8.85;7.95;;;;;;;19.26;36.71;96327.47;10325804;28;20047;-50
2022/04/25 16:32:56;;;;;;;7.00;6.30;;;;;;;19.53;37.48;96334.97;10339973;28;20527;-50
2022/04/25 16:38:16;;;;;;;6.30;5.80;;;;;;;19.70;37.84;96334.00;10336026;28;20093;-52
2022/04/25 16:43:37;;;;;;;6.28;5.68;;;;;;;19.81;37.75;96342.47;10334813;28;20054;-49
2022/04/25 16:48:57;;;;;;;6.20;5.70;;;;;;;19.90;38.00;96345.06;10333454;28;20054;-51
2022/04/25 16:54:16;;;;;;;5.88;5.38;;;;;;;19.98;38.25;96356.91;10336932;28;20124;-51
2022/04/25 16:59:36;;;;;;;6.57;5.97;;;;;;;20.02;38.26;96347.78;10332651;28;20130;-49
2022/04/25 17:04:56;;;;;;;5.90;5.40;;;;;;;20.06;38.37;96348.66;10342466;28;20053;-50
2022/04/25 17:10:16;;;;;;;6.32;5.72;;;;;;;20.10;38.73;96359.59;10330433;28;20051;-51
2022/04/25 17:15:36;;;;;;;6.50;6.00;;;;;;;20.15;38.89;96370.22;10328152;28;20062;-51
2022/04/25 17:20:56;;;;;;;5.85;5.35;;;;;;;20.18;38.92;96374.94;10338520;28;20050;-52
2022/04/25 17:26:17;;;;;;;6.38;5.78;;;;;;;20.22;38.95;96378.53;10317718;28;20054;-51
